createdAt,value
2017-03-02T00:00:39.991Z,988.12
2017-03-02T00:01:33.013Z,988.05
2017-03-02T00:02:26.007Z,987.98
2017-03-02T00:02:47.740Z,987.93
2017-03-02T00:03:09.441Z,987.95
2017-03-02T00:03:31.133Z,988.02
2017-03-02T00:03:52.848Z,987.97
2017-03-02T00:04:14.648Z,988.01
2017-03-02T00:04:38.577Z,988.04
2017-03-02T00:05:31.526Z,987.96
2017-03-02T00:05:53.231Z,987.99
2017-03-02T00:06:19.711Z,988.00
2017-03-02T00:06:41.411Z,987.95
2017-03-02T00:07:03.123Z,988.05
2017-03-02T00:07:29.617Z,988.00
2017-03-02T00:07:51.525Z,988.04
2017-03-02T00:08:44.521Z,988.12
2017-03-02T00:09:06.227Z,988.04
2017-03-02T00:09:32.718Z,988.08
2017-03-02T00:09:54.433Z,988.06
2017-03-02T00:10:16.133Z,988.18
2017-03-02T00:11:49.904Z,988.02
2017-03-02T00:12:16.492Z,988.02
2017-03-02T00:12:38.209Z,988.04
2017-03-02T00:12:59.943Z,988.07
2017-03-02T00:13:26.429Z,987.98
2017-03-02T00:13:48.151Z,987.98
2017-03-02T00:14:09.881Z,987.97
2017-03-02T00:14:36.378Z,988.01
2017-03-02T00:14:58.097Z,987.99
2017-03-02T00:15:19.805Z,988.03
2017-03-02T00:15:46.296Z,988.07
2017-03-02T00:16:08.006Z,988.08
2017-03-02T00:16:34.506Z,988.07
2017-03-02T00:16:56.295Z,988.07
2017-03-02T00:17:49.273Z,988.03
2017-03-02T00:18:10.967Z,988.08
2017-03-02T00:18:37.539Z,988.00
2017-03-02T00:18:59.245Z,988.02
2017-03-02T00:19:20.939Z,988.07
2017-03-02T00:20:03.449Z,988.10
2017-03-02T00:20:25.152Z,988.07
2017-03-02T00:20:46.846Z,988.00
2017-03-02T00:21:13.321Z,988.10
2017-03-02T00:21:35.016Z,987.98
2017-03-02T00:21:56.727Z,987.98
2017-03-02T00:22:59.897Z,988.01
2017-03-02T00:23:21.809Z,988.07
2017-03-02T00:24:28.992Z,988.02
2017-03-02T00:24:50.835Z,987.93
2017-03-02T00:25:49.237Z,988.00
2017-03-02T00:26:10.953Z,987.96
2017-03-02T00:26:37.537Z,988.06
2017-03-02T00:26:59.247Z,988.06
2017-03-02T00:27:52.236Z,988.01
2017-03-02T00:28:14.045Z,988.01
2017-03-02T00:28:40.606Z,988.00
2017-03-02T00:29:02.363Z,988.02
2017-03-02T00:29:55.387Z,987.96
2017-03-02T00:30:21.863Z,987.91
2017-03-02T00:30:43.592Z,987.97
2017-03-02T00:31:43.903Z,987.98
2017-03-02T00:32:05.621Z,988.00
2017-03-02T00:33:01.557Z,987.95
2017-03-02T00:33:23.286Z,987.96
2017-03-02T00:33:49.794Z,988.01
2017-03-02T00:34:11.504Z,988.06
2017-03-02T00:34:35.964Z,987.96
2017-03-02T00:34:57.569Z,988.07
2017-03-02T00:35:19.303Z,988.03
2017-03-02T00:35:45.797Z,988.11
2017-03-02T00:36:07.518Z,988.05
2017-03-02T00:36:34.021Z,988.09
2017-03-02T00:36:55.719Z,988.04
2017-03-02T00:37:17.425Z,988.11
2017-03-02T00:37:43.920Z,988.08
2017-03-02T00:38:05.676Z,988.08
2017-03-02T00:38:27.422Z,988.02
2017-03-02T00:38:49.131Z,988.06
2017-03-02T00:39:10.828Z,988.08
2017-03-02T00:39:37.350Z,988.08
2017-03-02T00:39:59.051Z,988.04
2017-03-02T00:40:20.754Z,988.01
2017-03-02T00:41:23.829Z,988.02
2017-03-02T00:41:45.598Z,988.04
2017-03-02T00:42:38.598Z,988.07
2017-03-02T00:43:05.109Z,988.01
2017-03-02T00:43:26.854Z,987.95
2017-03-02T00:43:48.614Z,987.90
2017-03-02T00:44:10.348Z,988.03
2017-03-02T00:44:32.116Z,987.92
2017-03-02T00:45:35.179Z,987.85
2017-03-02T00:45:56.990Z,987.91
2017-03-02T00:47:00.113Z,987.84
2017-03-02T00:47:24.683Z,987.86
2017-03-02T00:48:17.647Z,987.85
2017-03-02T00:48:39.383Z,987.77
2017-03-02T00:50:03.627Z,987.82
2017-03-02T00:50:25.383Z,987.85
2017-03-02T00:51:18.343Z,987.82
2017-03-02T00:52:11.327Z,987.84
2017-03-02T00:52:33.077Z,987.81
2017-03-02T00:52:59.564Z,987.98
2017-03-02T00:53:21.277Z,987.89
2017-03-02T00:53:42.985Z,987.81
2017-03-02T00:54:04.712Z,987.83
2017-03-02T00:54:26.451Z,987.85
2017-03-02T00:54:48.170Z,987.80
2017-03-02T00:55:14.642Z,987.86
2017-03-02T00:55:43.988Z,987.81
2017-03-02T00:56:05.704Z,987.87
2017-03-02T00:56:58.708Z,987.90
2017-03-02T00:57:51.693Z,987.83
2017-03-02T00:58:13.456Z,987.91
2017-03-02T00:59:12.108Z,987.84
2017-03-02T00:59:33.885Z,987.82
2017-03-02T00:59:55.609Z,987.82
2017-03-02T01:00:58.757Z,987.80
2017-03-02T01:01:20.577Z,987.80
2017-03-02T01:02:23.662Z,987.82
2017-03-02T01:02:45.372Z,987.84
2017-03-02T01:03:07.093Z,987.78
2017-03-02T01:04:00.035Z,987.84
2017-03-02T01:04:21.761Z,987.82
2017-03-02T01:04:48.276Z,987.88
2017-03-02T01:05:10.012Z,987.87
2017-03-02T01:06:03.018Z,987.86
2017-03-02T01:06:29.513Z,987.83
2017-03-02T01:06:51.232Z,987.87
2017-03-02T01:07:17.850Z,987.91
2017-03-02T01:07:39.578Z,987.85
2017-03-02T01:08:06.067Z,987.85
2017-03-02T01:08:27.795Z,987.90
2017-03-02T01:08:54.321Z,987.94
2017-03-02T01:09:16.021Z,987.90
2017-03-02T01:09:40.541Z,987.96
2017-03-02T01:10:02.293Z,987.92
2017-03-02T01:10:24.045Z,987.89
2017-03-02T01:10:45.832Z,987.84
2017-03-02T01:11:38.785Z,987.91
2017-03-02T01:12:00.512Z,987.96
2017-03-02T01:12:22.311Z,987.83
2017-03-02T01:12:44.023Z,987.88
2017-03-02T01:13:05.784Z,987.83
2017-03-02T01:13:32.291Z,987.86
2017-03-02T01:13:54.076Z,987.87
2017-03-02T01:14:15.792Z,987.90
2017-03-02T01:15:08.759Z,987.81
2017-03-02T01:15:30.452Z,987.86
2017-03-02T01:15:56.937Z,987.94
2017-03-02T01:16:49.961Z,987.90
2017-03-02T01:17:42.973Z,987.94
2017-03-02T01:18:04.706Z,987.95
2017-03-02T01:18:57.747Z,987.98
2017-03-02T01:19:24.314Z,987.95
2017-03-02T01:19:46.073Z,988.02
2017-03-02T01:20:12.646Z,987.95
2017-03-02T01:20:34.417Z,988.05
2017-03-02T01:21:05.681Z,988.03
2017-03-02T01:21:32.186Z,987.96
2017-03-02T01:21:53.927Z,987.98
2017-03-02T01:23:01.202Z,988.15
2017-03-02T01:23:22.913Z,988.01
2017-03-02T01:23:44.622Z,987.99
2017-03-02T01:24:37.631Z,987.99
2017-03-02T01:25:44.961Z,987.91
2017-03-02T01:26:06.744Z,987.98
2017-03-02T01:27:09.307Z,988.01
2017-03-02T01:27:31.017Z,988.03
2017-03-02T01:27:52.738Z,987.98
2017-03-02T01:28:19.218Z,988.01
2017-03-02T01:28:40.953Z,987.94
2017-03-02T01:29:07.451Z,987.99
2017-03-02T01:29:29.186Z,988.01
2017-03-02T01:29:50.892Z,987.95
2017-03-02T01:30:43.873Z,988.06
2017-03-02T01:31:05.602Z,988.06
2017-03-02T01:31:35.063Z,988.05
2017-03-02T01:32:27.950Z,988.03
2017-03-02T01:33:35.238Z,987.91
2017-03-02T01:33:56.963Z,987.89
2017-03-02T01:34:49.950Z,987.94
2017-03-02T01:35:57.243Z,987.91
2017-03-02T01:36:18.987Z,987.97
2017-03-02T01:36:40.703Z,987.92
2017-03-02T01:37:07.202Z,987.95
2017-03-02T01:37:28.936Z,987.91
2017-03-02T01:37:55.414Z,987.86
2017-03-02T01:38:57.941Z,987.93
2017-03-02T01:39:19.635Z,987.91
2017-03-02T01:39:46.120Z,987.96
2017-03-02T01:40:07.855Z,987.86
2017-03-02T01:40:29.619Z,987.90
2017-03-02T01:40:58.595Z,987.91
2017-03-02T01:41:20.399Z,987.89
2017-03-02T01:42:13.450Z,987.88
2017-03-02T01:42:35.192Z,987.94
2017-03-02T01:42:56.918Z,987.94
2017-03-02T01:43:18.659Z,988.01
2017-03-02T01:43:43.439Z,988.02
2017-03-02T01:44:05.158Z,987.97
2017-03-02T01:44:58.136Z,987.93
2017-03-02T01:45:24.656Z,987.97
2017-03-02T01:45:46.664Z,987.97
2017-03-02T01:46:08.453Z,987.93
2017-03-02T01:46:30.163Z,988.00
2017-03-02T01:46:51.960Z,987.95
2017-03-02T01:47:13.708Z,988.03
2017-03-02T01:48:06.716Z,987.97
2017-03-02T01:48:28.425Z,988.01
2017-03-02T01:48:54.907Z,988.08
2017-03-02T01:49:16.631Z,988.01
2017-03-02T01:49:38.370Z,987.98
2017-03-02T01:50:00.107Z,987.99
2017-03-02T01:50:21.869Z,987.99
2017-03-02T01:50:43.604Z,988.01
2017-03-02T01:51:05.317Z,987.98
2017-03-02T01:51:27.058Z,988.05
2017-03-02T01:51:48.981Z,987.96
2017-03-02T01:52:15.480Z,987.98
2017-03-02T01:52:37.195Z,988.08
2017-03-02T01:53:03.704Z,988.02
2017-03-02T01:53:25.423Z,988.08
2017-03-02T01:53:51.937Z,988.13
2017-03-02T01:54:59.240Z,987.99
2017-03-02T01:55:20.977Z,988.03
2017-03-02T01:55:42.731Z,988.08
2017-03-02T01:56:04.461Z,988.18
2017-03-02T01:57:06.979Z,988.24
2017-03-02T01:57:28.747Z,988.17
2017-03-02T01:58:43.474Z,988.19
2017-03-02T01:59:09.987Z,988.17
2017-03-02T01:59:31.731Z,988.27
2017-03-02T01:59:58.224Z,988.22
2017-03-02T02:00:19.953Z,988.29
2017-03-02T02:00:41.669Z,988.24
2017-03-02T02:01:08.158Z,988.15
2017-03-02T02:01:29.882Z,988.23
2017-03-02T02:01:56.374Z,988.23
2017-03-02T02:02:18.134Z,988.27
2017-03-02T02:03:11.119Z,988.41
2017-03-02T02:04:04.156Z,988.33
2017-03-02T02:04:57.157Z,988.30
2017-03-02T02:06:04.455Z,988.42
2017-03-02T02:06:26.162Z,988.39
2017-03-02T02:06:47.895Z,988.32
2017-03-02T02:07:09.609Z,988.39
2017-03-02T02:07:31.310Z,988.42
2017-03-02T02:07:53.075Z,988.30
2017-03-02T02:08:14.858Z,988.41
2017-03-02T02:08:36.681Z,988.43
2017-03-02T02:08:58.384Z,988.30
2017-03-02T02:09:24.869Z,988.43
2017-03-02T02:09:46.570Z,988.38
2017-03-02T02:10:13.061Z,988.28
2017-03-02T02:10:34.785Z,988.36
2017-03-02T02:11:01.299Z,988.42
2017-03-02T02:11:23.014Z,988.43
2017-03-02T02:11:49.520Z,988.43
2017-03-02T02:12:11.226Z,988.41
2017-03-02T02:12:37.709Z,988.38
2017-03-02T02:12:59.533Z,988.36
2017-03-02T02:13:21.314Z,988.47
2017-03-02T02:14:23.836Z,988.49
2017-03-02T02:15:19.849Z,988.58
2017-03-02T02:15:41.603Z,988.44
2017-03-02T02:16:08.092Z,988.48
2017-03-02T02:16:29.840Z,988.52
2017-03-02T02:16:51.597Z,988.48
2017-03-02T02:17:59.897Z,988.49
2017-03-02T02:18:21.662Z,988.59
2017-03-02T02:18:43.417Z,988.54
2017-03-02T02:19:05.184Z,988.56
2017-03-02T02:19:26.891Z,988.50
2017-03-02T02:19:48.624Z,988.52
2017-03-02T02:20:10.350Z,988.62
2017-03-02T02:20:32.086Z,988.47
2017-03-02T02:20:53.869Z,988.45
2017-03-02T02:21:15.602Z,988.38
2017-03-02T02:21:37.318Z,988.50
2017-03-02T02:21:59.085Z,988.49
2017-03-02T02:22:52.122Z,988.51
2017-03-02T02:23:40.311Z,988.49
2017-03-02T02:24:02.085Z,988.56
2017-03-02T02:25:09.389Z,988.54
2017-03-02T02:25:31.086Z,988.46
2017-03-02T02:25:52.802Z,988.55
2017-03-02T02:26:14.497Z,988.55
2017-03-02T02:26:36.192Z,988.52
2017-03-02T02:27:29.163Z,988.63
2017-03-02T02:27:50.874Z,988.58
2017-03-02T02:28:12.572Z,988.51
2017-03-02T02:28:34.276Z,988.57
2017-03-02T02:28:55.984Z,988.66
2017-03-02T02:29:17.690Z,988.54
2017-03-02T02:29:42.215Z,988.61
2017-03-02T02:30:03.909Z,988.56
2017-03-02T02:30:25.613Z,988.61
2017-03-02T02:30:47.324Z,988.65
2017-03-02T02:31:09.037Z,988.70
2017-03-02T02:31:30.740Z,988.62
2017-03-02T02:31:52.487Z,988.62
2017-03-02T02:32:45.504Z,988.72
2017-03-02T02:33:12.007Z,988.63
2017-03-02T02:33:33.727Z,988.66
2017-03-02T02:34:26.721Z,988.71
2017-03-02T02:35:19.775Z,988.71
2017-03-02T02:36:23.145Z,988.74
2017-03-02T02:36:44.893Z,988.82
2017-03-02T02:37:47.991Z,988.76
2017-03-02T02:38:09.727Z,988.85
2017-03-02T02:39:12.264Z,988.63
2017-03-02T02:39:33.993Z,988.71
2017-03-02T02:39:55.746Z,988.73
2017-03-02T02:40:17.476Z,988.74
2017-03-02T02:42:32.123Z,988.80
2017-03-02T02:42:53.863Z,988.89
2017-03-02T02:43:15.600Z,988.86
2017-03-02T02:43:37.331Z,988.91
2017-03-02T02:44:30.362Z,988.90
2017-03-02T02:46:04.254Z,988.81
2017-03-02T02:46:26.032Z,988.83
2017-03-02T02:46:52.547Z,988.82
2017-03-02T02:47:14.276Z,988.87
2017-03-02T02:48:07.321Z,988.92
2017-03-02T02:49:00.303Z,988.87
2017-03-02T02:49:53.285Z,988.91
2017-03-02T02:51:00.620Z,989.06
2017-03-02T02:51:24.577Z,989.01
2017-03-02T02:52:17.601Z,988.96
2017-03-02T02:52:44.079Z,989.02
2017-03-02T02:53:05.779Z,989.02
2017-03-02T02:53:27.472Z,989.04
2017-03-02T02:53:49.167Z,989.00
2017-03-02T02:54:10.875Z,988.98
2017-03-02T02:54:32.596Z,989.07
2017-03-02T02:54:54.304Z,988.92
2017-03-02T02:55:16.015Z,989.04
2017-03-02T02:55:37.718Z,989.08
2017-03-02T02:55:59.418Z,989.05
2017-03-02T02:56:21.109Z,989.21
2017-03-02T02:56:42.803Z,989.16
2017-03-02T02:57:09.288Z,989.13
2017-03-02T02:57:30.978Z,989.04
2017-03-02T02:57:54.688Z,989.15
2017-03-02T02:58:16.380Z,989.18
2017-03-02T02:58:38.082Z,989.19
2017-03-02T02:58:59.801Z,989.21
2017-03-02T02:59:21.503Z,989.19
2017-03-02T02:59:43.196Z,989.09
2017-03-02T03:00:04.892Z,989.13
2017-03-02T03:00:26.597Z,989.08
2017-03-02T03:00:48.294Z,989.22
2017-03-02T03:01:14.776Z,989.20
2017-03-02T03:01:36.464Z,989.10
2017-03-02T03:01:58.184Z,989.10
2017-03-02T03:02:24.666Z,989.16
2017-03-02T03:02:46.366Z,989.17
2017-03-02T03:03:08.070Z,989.23
2017-03-02T03:03:29.771Z,989.20
2017-03-02T03:03:51.472Z,989.18
2017-03-02T03:04:13.172Z,989.21
2017-03-02T03:04:34.877Z,989.28
2017-03-02T03:04:56.578Z,989.21
2017-03-02T03:05:23.058Z,989.13
2017-03-02T03:05:44.760Z,989.41
2017-03-02T03:06:37.708Z,989.22
2017-03-02T03:07:04.201Z,989.20
2017-03-02T03:07:25.883Z,989.30
2017-03-02T03:08:18.831Z,989.21
2017-03-02T03:08:45.314Z,989.26
2017-03-02T03:09:07.007Z,989.30
2017-03-02T03:09:33.487Z,989.29
2017-03-02T03:09:55.188Z,989.16
2017-03-02T03:10:16.884Z,989.08
2017-03-02T03:10:43.368Z,989.18
2017-03-02T03:11:05.059Z,989.14
2017-03-02T03:11:31.531Z,989.18
2017-03-02T03:11:53.234Z,989.26
2017-03-02T03:12:51.492Z,989.24
2017-03-02T03:13:13.190Z,989.26
2017-03-02T03:13:34.898Z,989.33
2017-03-02T03:14:01.375Z,989.31
2017-03-02T03:14:23.071Z,989.24
2017-03-02T03:14:44.763Z,989.29
2017-03-02T03:15:11.243Z,989.37
2017-03-02T03:15:32.937Z,989.27
2017-03-02T03:15:59.412Z,989.29
2017-03-02T03:16:21.103Z,989.31
2017-03-02T03:16:42.811Z,989.26
2017-03-02T03:17:09.279Z,989.21
2017-03-02T03:17:30.997Z,989.28
2017-03-02T03:17:52.698Z,989.34
2017-03-02T03:18:45.641Z,989.36
2017-03-02T03:19:07.344Z,989.30
2017-03-02T03:19:29.088Z,989.38
2017-03-02T03:19:50.760Z,989.38
2017-03-02T03:20:12.462Z,989.35
2017-03-02T03:20:34.166Z,989.29
2017-03-02T03:20:55.871Z,989.43
2017-03-02T03:21:17.563Z,989.32
2017-03-02T03:21:44.035Z,989.36
2017-03-02T03:22:05.741Z,989.36
2017-03-02T03:22:27.443Z,989.49
2017-03-02T03:22:53.919Z,989.44
2017-03-02T03:23:15.621Z,989.46
2017-03-02T03:23:37.326Z,989.48
2017-03-02T03:23:59.035Z,989.38
2017-03-02T03:24:20.735Z,989.48
2017-03-02T03:24:42.424Z,989.36
2017-03-02T03:25:04.152Z,989.47
2017-03-02T03:25:25.826Z,989.50
2017-03-02T03:25:47.528Z,989.39
2017-03-02T03:26:09.236Z,989.46
2017-03-02T03:26:30.927Z,989.47
2017-03-02T03:27:23.874Z,989.43
2017-03-02T03:27:45.610Z,989.55
2017-03-02T03:28:12.077Z,989.54
2017-03-02T03:28:33.768Z,989.48
2017-03-02T03:29:00.239Z,989.44
2017-03-02T03:29:21.935Z,989.52
2017-03-02T03:29:43.640Z,989.57
2017-03-02T03:30:05.343Z,989.50
2017-03-02T03:30:27.046Z,989.56
2017-03-02T03:30:48.748Z,989.49
2017-03-02T03:31:10.450Z,989.48
2017-03-02T03:31:32.171Z,989.58
2017-03-02T03:32:25.112Z,989.56
2017-03-02T03:32:51.592Z,989.57
2017-03-02T03:33:13.282Z,989.49
2017-03-02T03:33:34.981Z,989.55
2017-03-02T03:33:56.681Z,989.50
2017-03-02T03:34:18.374Z,989.61
2017-03-02T03:34:40.069Z,989.53
2017-03-02T03:35:06.541Z,989.53
2017-03-02T03:35:35.023Z,989.54
2017-03-02T03:35:56.729Z,989.58
2017-03-02T03:36:18.427Z,989.53
2017-03-02T03:36:40.125Z,989.65
2017-03-02T03:37:01.832Z,989.61
2017-03-02T03:37:23.533Z,989.66
2017-03-02T03:38:16.484Z,989.54
2017-03-02T03:39:09.437Z,989.64
2017-03-02T03:40:12.515Z,989.61
2017-03-02T03:40:34.213Z,989.65
2017-03-02T03:40:55.899Z,989.54
2017-03-02T03:41:48.859Z,989.66
2017-03-02T03:42:10.559Z,989.60
2017-03-02T03:42:32.269Z,989.58
2017-03-02T03:42:53.966Z,989.60
2017-03-02T03:43:15.671Z,989.59
2017-03-02T03:43:42.159Z,989.66
2017-03-02T03:44:03.881Z,989.59
2017-03-02T03:44:30.362Z,989.54
2017-03-02T03:44:52.056Z,989.58
2017-03-02T03:45:13.757Z,989.71
2017-03-02T03:45:40.233Z,989.64
2017-03-02T03:46:01.929Z,989.63
2017-03-02T03:46:23.630Z,989.58
2017-03-02T03:47:16.576Z,989.69
2017-03-02T03:47:38.274Z,989.67
2017-03-02T03:47:59.972Z,989.66
2017-03-02T03:48:21.663Z,989.69
2017-03-02T03:48:48.137Z,989.68
2017-03-02T03:49:09.855Z,989.74
2017-03-02T03:49:31.548Z,989.71
2017-03-02T03:49:53.261Z,989.65
2017-03-02T03:50:14.962Z,989.65
2017-03-02T03:50:36.663Z,989.69
2017-03-02T03:51:03.133Z,989.69
2017-03-02T03:51:24.828Z,989.65
2017-03-02T03:52:17.767Z,989.67
2017-03-02T03:52:39.472Z,989.70
2017-03-02T03:53:05.951Z,989.64
2017-03-02T03:53:27.655Z,989.72
2017-03-02T03:53:49.362Z,989.73
2017-03-02T03:54:15.834Z,989.85
2017-03-02T03:54:37.528Z,989.71
2017-03-02T03:54:59.216Z,989.79
2017-03-02T03:55:25.689Z,989.74
2017-03-02T03:55:47.386Z,989.77
2017-03-02T03:56:09.092Z,989.80
2017-03-02T03:56:30.794Z,989.78
2017-03-02T03:56:52.522Z,989.73
2017-03-02T03:57:45.464Z,989.73
2017-03-02T03:58:07.162Z,989.75
2017-03-02T03:58:28.864Z,989.80
2017-03-02T03:58:50.567Z,989.81
2017-03-02T03:59:12.255Z,989.85
2017-03-02T03:59:33.957Z,989.79
2017-03-02T03:59:55.647Z,989.73
2017-03-02T04:00:17.345Z,989.77
2017-03-02T04:01:10.301Z,989.95
2017-03-02T04:01:31.994Z,989.83
2017-03-02T04:01:53.747Z,989.76
2017-03-02T04:02:15.444Z,989.67
2017-03-02T04:03:08.405Z,989.76
2017-03-02T04:03:34.884Z,989.93
2017-03-02T04:03:56.578Z,989.78
2017-03-02T04:05:25.649Z,989.75
2017-03-02T04:05:52.175Z,990.01
2017-03-02T04:06:14.173Z,989.96
2017-03-02T04:06:40.839Z,989.99
2017-03-02T04:07:05.235Z,989.94
2017-03-02T04:07:58.275Z,989.97
2017-03-02T04:08:51.273Z,990.14
2017-03-02T04:09:13.009Z,990.08
2017-03-02T04:09:39.517Z,989.96
2017-03-02T04:10:01.241Z,990.05
2017-03-02T04:10:27.770Z,990.05
2017-03-02T04:10:49.503Z,989.97
2017-03-02T04:11:16.028Z,990.03
2017-03-02T04:11:37.765Z,990.07
2017-03-02T04:12:04.294Z,990.07
2017-03-02T04:12:26.028Z,990.06
2017-03-02T04:12:47.869Z,990.01
2017-03-02T04:13:50.405Z,990.11
2017-03-02T04:14:12.140Z,990.11
2017-03-02T04:14:33.866Z,990.19
2017-03-02T04:15:00.361Z,990.22
2017-03-02T04:15:22.125Z,990.08
2017-03-02T04:15:48.645Z,990.18
2017-03-02T04:16:10.378Z,990.07
2017-03-02T04:16:36.894Z,990.11
2017-03-02T04:16:58.764Z,990.23
2017-03-02T04:17:20.501Z,990.10
2017-03-02T04:18:23.565Z,990.15
2017-03-02T04:18:45.297Z,990.14
2017-03-02T04:19:52.591Z,990.20
2017-03-02T04:20:14.338Z,990.20
2017-03-02T04:20:40.835Z,990.16
2017-03-02T04:21:04.763Z,990.28
2017-03-02T04:21:26.560Z,990.21
2017-03-02T04:21:48.324Z,990.43
2017-03-02T04:22:10.020Z,990.29
2017-03-02T04:22:31.887Z,990.32
2017-03-02T04:23:30.141Z,990.38
2017-03-02T04:23:51.928Z,990.35
2017-03-02T04:24:13.669Z,990.41
2017-03-02T04:24:35.394Z,990.39
2017-03-02T04:24:57.199Z,990.56
2017-03-02T04:25:18.962Z,990.30
2017-03-02T04:25:40.700Z,990.39
2017-03-02T04:26:02.466Z,990.44
2017-03-02T04:26:24.192Z,990.46
2017-03-02T04:26:45.945Z,990.71
2017-03-02T04:27:07.695Z,990.41
2017-03-02T04:27:29.403Z,990.54
2017-03-02T04:27:51.125Z,990.69
2017-03-02T04:28:17.605Z,990.64
2017-03-02T04:28:39.339Z,990.65
2017-03-02T04:29:32.355Z,990.56
2017-03-02T04:30:25.339Z,990.72
2017-03-02T04:31:18.443Z,990.74
2017-03-02T04:32:20.987Z,990.79
2017-03-02T04:32:47.461Z,990.71
2017-03-02T04:33:09.296Z,990.66
2017-03-02T04:33:31.107Z,990.88
2017-03-02T04:33:57.659Z,990.71
2017-03-02T04:34:19.381Z,990.79
2017-03-02T04:35:12.380Z,990.90
2017-03-02T04:36:14.903Z,990.93
2017-03-02T04:36:36.632Z,990.81
2017-03-02T04:37:39.696Z,990.91
2017-03-02T04:38:01.493Z,990.84
2017-03-02T04:39:35.289Z,990.90
2017-03-02T04:40:42.612Z,990.94
2017-03-02T04:41:04.475Z,990.92
2017-03-02T04:42:07.016Z,990.91
2017-03-02T04:42:28.730Z,990.90
2017-03-02T04:42:50.445Z,990.98
2017-03-02T04:43:12.145Z,990.98
2017-03-02T04:43:33.846Z,990.91
2017-03-02T04:44:05.113Z,991.03
2017-03-02T04:44:26.840Z,990.82
2017-03-02T04:44:48.690Z,990.97
2017-03-02T04:45:15.192Z,990.94
2017-03-02T04:45:36.920Z,990.94
2017-03-02T04:45:58.660Z,991.08
2017-03-02T04:46:25.148Z,990.93
2017-03-02T04:46:46.856Z,991.01
2017-03-02T04:47:08.570Z,990.96
2017-03-02T04:48:01.531Z,991.01
2017-03-02T04:49:35.307Z,991.01
2017-03-02T04:49:57.049Z,990.96
2017-03-02T04:50:23.542Z,990.97
2017-03-02T04:50:45.306Z,990.97
2017-03-02T04:51:11.809Z,991.16
2017-03-02T04:51:33.528Z,990.99
2017-03-02T04:51:55.237Z,990.96
2017-03-02T04:52:16.933Z,991.07
2017-03-02T04:52:38.654Z,991.11
2017-03-02T04:53:00.412Z,991.14
2017-03-02T04:53:22.124Z,991.04
2017-03-02T04:53:43.845Z,990.98
2017-03-02T04:54:05.543Z,991.07
2017-03-02T04:54:27.252Z,991.09
2017-03-02T04:54:48.994Z,991.16
2017-03-02T04:55:10.717Z,991.14
2017-03-02T04:55:32.460Z,991.15
2017-03-02T04:55:54.223Z,991.08
2017-03-02T04:56:15.953Z,991.00
2017-03-02T04:56:37.687Z,991.10
2017-03-02T04:56:59.431Z,991.19
2017-03-02T04:57:21.206Z,991.10
2017-03-02T04:57:42.934Z,991.15
2017-03-02T04:58:04.660Z,991.14
2017-03-02T04:58:26.437Z,991.14
2017-03-02T04:58:48.169Z,991.15
2017-03-02T04:59:09.945Z,991.14
2017-03-02T04:59:31.691Z,991.20
2017-03-02T04:59:53.467Z,991.16
2017-03-02T05:00:15.216Z,991.09
2017-03-02T05:00:36.977Z,991.20
2017-03-02T05:00:58.695Z,991.18
2017-03-02T05:01:20.409Z,991.14
2017-03-02T05:01:42.184Z,991.21
2017-03-02T05:02:03.903Z,991.13
2017-03-02T05:02:25.751Z,991.11
2017-03-02T05:02:47.503Z,991.12
2017-03-02T05:03:50.063Z,991.28
2017-03-02T05:04:11.798Z,991.31
2017-03-02T05:04:33.479Z,991.29
2017-03-02T05:04:55.187Z,991.30
2017-03-02T05:05:19.749Z,991.39
2017-03-02T05:06:27.083Z,991.50
2017-03-02T05:06:48.781Z,991.49
2017-03-02T05:08:00.850Z,991.51
2017-03-02T05:08:22.598Z,991.49
2017-03-02T05:08:44.327Z,991.53
2017-03-02T05:09:47.385Z,991.65
2017-03-02T05:10:09.102Z,991.66
2017-03-02T05:10:30.805Z,991.63
2017-03-02T05:10:54.933Z,991.66
2017-03-02T05:11:16.632Z,991.79
2017-03-02T05:11:38.359Z,991.75
2017-03-02T05:12:00.067Z,991.78
2017-03-02T05:12:21.803Z,991.75
2017-03-02T05:12:43.559Z,991.79
2017-03-02T05:13:46.090Z,991.74
2017-03-02T05:14:07.808Z,991.75
2017-03-02T05:15:10.859Z,991.70
2017-03-02T05:15:32.627Z,991.77
2017-03-02T05:16:35.710Z,991.76
2017-03-02T05:16:57.531Z,991.83
2017-03-02T05:17:19.325Z,991.79
2017-03-02T05:17:41.035Z,991.88
2017-03-02T05:18:02.832Z,991.88
2017-03-02T05:18:24.628Z,991.75
2017-03-02T05:18:46.430Z,991.76
2017-03-02T05:19:08.214Z,991.81
2017-03-02T05:20:01.290Z,991.78
2017-03-02T05:20:59.833Z,991.81
2017-03-02T05:21:21.547Z,991.86
2017-03-02T05:21:43.262Z,991.89
2017-03-02T05:22:09.753Z,991.84
2017-03-02T05:22:31.533Z,991.89
2017-03-02T05:23:24.578Z,991.92
2017-03-02T05:24:17.545Z,991.95
2017-03-02T05:25:20.584Z,991.87
2017-03-02T05:25:42.489Z,991.90
2017-03-02T05:26:04.209Z,991.89
2017-03-02T05:26:57.188Z,991.86
2017-03-02T05:27:23.665Z,991.92
2017-03-02T05:27:45.364Z,991.93
2017-03-02T05:28:48.491Z,992.14
2017-03-02T05:29:10.187Z,992.00
2017-03-02T05:29:31.884Z,991.97
2017-03-02T05:29:53.677Z,991.95
2017-03-02T05:30:15.477Z,992.04
2017-03-02T05:30:37.266Z,991.98
2017-03-02T05:31:03.827Z,991.98
2017-03-02T05:31:25.621Z,992.14
2017-03-02T05:32:28.735Z,992.03
2017-03-02T05:32:50.453Z,992.11
2017-03-02T05:33:12.270Z,992.28
2017-03-02T05:34:05.251Z,992.10
2017-03-02T05:34:31.865Z,992.14
2017-03-02T05:34:53.580Z,992.21
2017-03-02T05:35:20.159Z,992.17
2017-03-02T05:35:41.854Z,992.17
2017-03-02T05:36:03.603Z,992.15
2017-03-02T05:36:25.404Z,992.13
2017-03-02T05:36:48.233Z,992.20
2017-03-02T05:37:10.136Z,992.26
2017-03-02T05:38:03.198Z,992.28
2017-03-02T05:38:56.168Z,992.31
2017-03-02T05:39:49.323Z,992.23
2017-03-02T05:40:47.635Z,992.30
2017-03-02T05:41:09.462Z,992.27
2017-03-02T05:41:31.179Z,992.32
2017-03-02T05:42:24.338Z,992.32
2017-03-02T05:43:27.280Z,992.37
2017-03-02T05:43:48.974Z,992.40
2017-03-02T05:44:10.770Z,992.42
2017-03-02T05:45:03.862Z,992.42
2017-03-02T05:45:56.920Z,992.42
2017-03-02T05:46:18.738Z,992.39
2017-03-02T05:46:40.532Z,992.51
2017-03-02T05:47:02.395Z,992.44
2017-03-02T05:47:55.443Z,992.51
2017-03-02T05:48:58.520Z,992.66
2017-03-02T05:49:20.216Z,992.56
2017-03-02T05:49:42.011Z,992.61
2017-03-02T05:50:08.484Z,992.59
2017-03-02T05:50:30.260Z,992.67
2017-03-02T05:50:52.037Z,992.66
2017-03-02T05:51:18.547Z,992.69
2017-03-02T05:51:40.425Z,992.63
2017-03-02T05:52:47.713Z,992.71
2017-03-02T05:53:09.410Z,992.73
2017-03-02T05:53:31.101Z,992.85
2017-03-02T05:54:34.165Z,992.77
2017-03-02T05:54:55.858Z,992.87
2017-03-02T05:55:22.337Z,992.88
2017-03-02T05:55:44.031Z,992.83
2017-03-02T05:56:10.505Z,992.93
2017-03-02T05:56:32.225Z,992.90
2017-03-02T05:57:34.726Z,992.82
2017-03-02T05:57:56.420Z,992.91
2017-03-02T05:58:18.129Z,992.75
2017-03-02T05:58:44.617Z,992.77
2017-03-02T05:59:06.312Z,992.95
2017-03-02T05:59:59.259Z,992.88
2017-03-02T06:00:52.199Z,992.80
2017-03-02T06:01:45.170Z,992.81
2017-03-02T06:02:11.649Z,992.81
2017-03-02T06:02:33.362Z,992.83
2017-03-02T06:02:55.073Z,992.91
2017-03-02T06:03:16.779Z,992.92
2017-03-02T06:03:38.469Z,992.90
2017-03-02T06:04:00.174Z,992.92
2017-03-02T06:04:21.891Z,992.93
2017-03-02T06:04:43.588Z,992.91
2017-03-02T06:05:41.934Z,992.94
2017-03-02T06:06:03.667Z,993.06
2017-03-02T06:07:06.188Z,993.01
2017-03-02T06:07:27.890Z,992.98
2017-03-02T06:07:49.587Z,993.02
2017-03-02T06:08:11.287Z,993.08
2017-03-02T06:09:04.231Z,992.99
2017-03-02T06:09:25.932Z,992.94
2017-03-02T06:09:47.644Z,992.98
2017-03-02T06:10:09.344Z,992.95
2017-03-02T06:10:35.925Z,992.97
2017-03-02T06:10:57.613Z,993.04
2017-03-02T06:11:50.706Z,993.11
2017-03-02T06:12:57.985Z,993.16
2017-03-02T06:13:19.682Z,993.10